74NY weather

New Salem Aerodrome
Farmington, New York, United States

Public forecast

Using degrees Fahrenheit for public forecast. Weather courtesy of forecast.io.

Closest aviation weather report (METAR) to New Salem Aerodrome

Closest report is Greater Rochester International Airport, 18.0 nm (33.4 km) WNW. Retrieved 2019/12/12 14:54 UTC (48 minutes ago):

KROC 121454Z 22008KT 10SM SCT250 M07/M13 A3068 RMK AO2 SLP402 T10671128 53016

Closest aviation forecast (TAF) to New Salem Aerodrome

Closest forecast is Greater Rochester International Airport, 18.0 nm (33.4 km) WNW. Retrieved 2019/12/12 12:36 UTC (3 hours ago):

TAF KROC 121133Z 1212/1312 22005KT P6SM BKN250 FM121700 19006KT P6SM BKN080 FM122000 16006KT P6SM BKN100 FM130500 18013KT P6SM BKN120